メインページ
METAR-TAF:

METAR-TAF

空港 :

テッド・スティーブンス・アンカレッジ国際空港

アンカレッジ, アラスカ州, アメリカ合衆国

緯度: 61-10-28N, 経度: 149-59-46W, 海抜: 44m

現時点の気象観測

当レポートは48分前の04:53(UTC)に作成
北西の風 3kt
気温 18°C
湿度 68%
気圧 1027 hPa
視程: 16.1km
高度5000ftの雲はほとんどない
高度20000ftの雲は散在している

METAR: PANC 210453Z 31003KT 10SM FEW050 SCT200 18/12 A3032 RMK AO2 SLP268 T01780117

時間: 21:41 (05:41 UTC)

予報

当レポートは20分前の05:21(UTC)に作成
予報は21日の 06時(UTC)から 22日の 12時(UTC)まで有効
変向風 5kt
視程: 10km
高度5000ftの雲はほとんどない
21日の 0900時(UTC)から
変向風 3kt
視程: 10km
高度500ftの雲はほとんどない
高度1200ftの千切れ雲あり
21日の 1200時(UTC)から
の風 kt
視程: 10km
高度500ftの千切れ雲あり
高度1200ftの曇り
21日の 2000時(UTC)から
変向風 3kt
視程: 10km
高度500ftの雲は散在している
高度2500ftの千切れ雲あり
22日の 0000時(UTC)から
西/北西の風 6kt
視程: 10km
高度2500ftの雲はほとんどない

TAF: PANC 210521Z 2106/2212 VRB05KT P6SM FEW050 FM210900 VRB03KT P6SM FEW005 BKN012 FM211200 00000KT P6SM BKN005 OVC012 FM212000 VRB03KT P6SM SCT005 BKN025 FM220000 30006KT P6SM FEW025

4,000以上の空港の気象観測と天気予報(METAR報とTAF報)

利用可能な観測所は地図上に黄色い丸と赤い丸で示す。

丸の上にカーソルを重ねると観測所名を参照できる。

次にクリックすると気象観測と天気予報を参照できる。

マップの切り替え:黒色「×」印の緑ボタンをクリックして拡大、「-」印の緑ボタンをクリックして縮小、緑色の三角印をクリックして隣りの地図に切り替え


METAR-TAF: